sensor_id;sensor_type;location;lat;lon;timestamp;pressure;altitude;pressure_sealevel;temperature;humidity
79481;BME280;68944;48.262;14.208;2023-11-21T00:00:55;97868.03;;;3.57;100.00
79481;BME280;68944;48.262;14.208;2023-11-21T00:03:21;97867.97;;;3.50;100.00
79481;BME280;68944;48.262;14.208;2023-11-21T00:05:48;97873.72;;;3.61;100.00
79481;BME280;68944;48.262;14.208;2023-11-21T00:08:14;97881.53;;;3.39;100.00
79481;BME280;68944;48.262;14.208;2023-11-21T00:10:39;97879.81;;;3.46;100.00
79481;BME280;68944;48.262;14.208;2023-11-21T00:13:05;97879.78;;;3.61;100.00
79481;BME280;68944;48.262;14.208;2023-11-21T00:15:31;97880.19;;;3.28;100.00
79481;BME280;68944;48.262;14.208;2023-11-21T00:17:56;97873.81;;;3.00;100.00
79481;BME280;68944;48.262;14.208;2023-11-21T00:20:22;97881.94;;;3.05;100.00
79481;BME280;68944;48.262;14.208;2023-11-21T00:22:48;97883.00;;;3.11;100.00
79481;BME280;68944;48.262;14.208;2023-11-21T00:25:13;97885.72;;;3.18;100.00
79481;BME280;68944;48.262;14.208;2023-11-21T00:27:41;97886.25;;;3.28;100.00
79481;BME280;68944;48.262;14.208;2023-11-21T00:30:07;97875.66;;;3.52;100.00
79481;BME280;68944;48.262;14.208;2023-11-21T00:32:38;97880.13;;;3.21;100.00
79481;BME280;68944;48.262;14.208;2023-11-21T00:35:03;97881.03;;;2.98;100.00
79481;BME280;68944;48.262;14.208;2023-11-21T00:37:29;97881.69;;;2.85;100.00
79481;BME280;68944;48.262;14.208;2023-11-21T00:39:57;97885.09;;;2.86;100.00
79481;BME280;68944;48.262;14.208;2023-11-21T00:42:23;97886.19;;;2.91;100.00
79481;BME280;68944;48.262;14.208;2023-11-21T00:44:49;97886.25;;;3.13;100.00
79481;BME280;68944;48.262;14.208;2023-11-21T00:47:15;97877.66;;;3.35;100.00
79481;BME280;68944;48.262;14.208;2023-11-21T00:49:41;97877.78;;;3.26;100.00
79481;BME280;68944;48.262;14.208;2023-11-21T00:52:08;97887.72;;;3.16;100.00
79481;BME280;68944;48.262;14.208;2023-11-21T00:54:34;97889.72;;;2.99;100.00
79481;BME280;68944;48.262;14.208;2023-11-21T00:56:59;97888.69;;;2.69;100.00
79481;BME280;68944;48.262;14.208;2023-11-21T00:59:26;97893.56;;;2.88;100.00
79481;BME280;68944;48.262;14.208;2023-11-21T01:01:52;97896.47;;;2.93;100.00
79481;BME280;68944;48.262;14.208;2023-11-21T01:04:18;97903.88;;;2.89;100.00
79481;BME280;68944;48.262;14.208;2023-11-21T01:06:44;97903.84;;;2.74;100.00
79481;BME280;68944;48.262;14.208;2023-11-21T01:09:11;97902.94;;;2.67;100.00
79481;BME280;68944;48.262;14.208;2023-11-21T01:11:38;97903.59;;;2.69;100.00
79481;BME280;68944;48.262;14.208;2023-11-21T01:14:04;97901.25;;;2.89;100.00
79481;BME280;68944;48.262;14.208;2023-11-21T01:16:30;97902.16;;;2.81;100.00
79481;BME280;68944;48.262;14.208;2023-11-21T01:18:58;97903.78;;;2.82;100.00
79481;BME280;68944;48.262;14.208;2023-11-21T01:21:24;97900.88;;;2.77;100.00
79481;BME280;68944;48.262;14.208;2023-11-21T01:23:50;97903.41;;;2.70;100.00
79481;BME280;68944;48.262;14.208;2023-11-21T01:26:15;97902.94;;;2.67;100.00
79481;BME280;68944;48.262;14.208;2023-11-21T01:28:41;97897.66;;;2.75;100.00
79481;BME280;68944;48.262;14.208;2023-11-21T01:31:07;97893.47;;;2.81;100.00
79481;BME280;68944;48.262;14.208;2023-11-21T01:33:32;97881.69;;;2.85;100.00
79481;BME280;68944;48.262;14.208;2023-11-21T01:35:58;97878.41;;;2.83;100.00
79481;BME280;68944;48.262;14.208;2023-11-21T01:38:25;97872.75;;;2.79;100.00
79481;BME280;68944;48.262;14.208;2023-11-21T01:40:51;97874.81;;;2.84;100.00
79481;BME280;68944;48.262;14.208;2023-11-21T01:43:17;97874.38;;;2.80;100.00
79481;BME280;68944;48.262;14.208;2023-11-21T01:45:43;97873.38;;;2.81;100.00
79481;BME280;68944;48.262;14.208;2023-11-21T01:48:10;97874.38;;;2.80;100.00
79481;BME280;68944;48.262;14.208;2023-11-21T01:50:37;97872.00;;;2.86;100.00
79481;BME280;68944;48.262;14.208;2023-11-21T01:53:04;97874.38;;;2.80;100.00
79481;BME280;68944;48.262;14.208;2023-11-21T01:55:33;97881.13;;;2.75;100.00
79481;BME280;68944;48.262;14.208;2023-11-21T01:57:59;97878.34;;;2.91;100.00
79481;BME280;68944;48.262;14.208;2023-11-21T02:00:25;97876.69;;;2.90;100.00
79481;BME280;68944;48.262;14.208;2023-11-21T02:02:54;97875.16;;;3.26;100.00
79481;BME280;68944;48.262;14.208;2023-11-21T02:05:20;97878.75;;;3.25;100.00
79481;BME280;68944;48.262;14.208;2023-11-21T02:07:47;97878.81;;;3.47;100.00
79481;BME280;68944;48.262;14.208;2023-11-21T02:10:18;97877.19;;;3.46;100.00
79481;BME280;68944;48.262;14.208;2023-11-21T02:12:48;97873.19;;;3.50;100.00
79481;BME280;68944;48.262;14.208;2023-11-21T02:15:18;97881.69;;;3.52;100.00
79481;BME280;68944;48.262;14.208;2023-11-21T02:17:50;97874.56;;;3.46;100.00
79481;BME280;68944;48.262;14.208;2023-11-21T02:20:22;97879.03;;;3.30;100.00
79481;BME280;68944;48.262;14.208;2023-11-21T02:22:50;97882.13;;;3.19;100.00
79481;BME280;68944;48.262;14.208;2023-11-21T02:25:27;97888.00;;;3.06;100.00
79481;BME280;68944;48.262;14.208;2023-11-21T02:27:54;97887.06;;;3.14;100.00
79481;BME280;68944;48.262;14.208;2023-11-21T02:30:21;97892.41;;;3.05;100.00
79481;BME280;68944;48.262;14.208;2023-11-21T02:32:48;97892.84;;;3.09;100.00
79481;BME280;68944;48.262;14.208;2023-11-21T02:35:14;97896.84;;;3.05;100.00
79481;BME280;68944;48.262;14.208;2023-11-21T02:37:41;97887.00;;;2.92;100.00
79481;BME280;68944;48.262;14.208;2023-11-21T02:40:10;97886.53;;;2.88;100.00
79481;BME280;68944;48.262;14.208;2023-11-21T02:42:38;97893.50;;;2.96;100.00
79481;BME280;68944;48.262;14.208;2023-11-21T02:45:06;97888.72;;;3.00;100.00
79481;BME280;68944;48.262;14.208;2023-11-21T02:47:31;97879.94;;;2.92;100.00
79481;BME280;68944;48.262;14.208;2023-11-21T02:49:57;97883.31;;;3.01;100.00
79481;BME280;68944;48.262;14.208;2023-11-21T02:52:22;97887.28;;;3.12;100.00
79481;BME280;68944;48.262;14.208;2023-11-21T02:54:49;97876.25;;;3.17;100.00
79481;BME280;68944;48.262;14.208;2023-11-21T02:57:14;97879.84;;;3.31;100.00
79481;BME280;68944;48.262;14.208;2023-11-21T02:59:39;97879.09;;;3.37;100.00
79481;BME280;68944;48.262;14.208;2023-11-21T03:02:05;97883.16;;;3.40;100.00
79481;BME280;68944;48.262;14.208;2023-11-21T03:04:34;97874.38;;;3.48;100.00
79481;BME280;68944;48.262;14.208;2023-11-21T03:07:00;97872.16;;;3.67;100.00
79481;BME280;68944;48.262;14.208;2023-11-21T03:09:25;97868.69;;;3.59;100.00
79481;BME280;68944;48.262;14.208;2023-11-21T03:11:53;97864.63;;;3.57;100.00
79481;BME280;68944;48.262;14.208;2023-11-21T03:14:19;97871.81;;;3.70;100.00
79481;BME280;68944;48.262;14.208;2023-11-21T03:16:45;97871.38;;;3.66;100.00
79481;BME280;68944;48.262;14.208;2023-11-21T03:19:11;97878.25;;;3.89;100.00
79481;BME280;68944;48.262;14.208;2023-11-21T03:21:36;97865.31;;;3.87;100.00
79481;BME280;68944;48.262;14.208;2023-11-21T03:24:02;97856.50;;;3.73;100.00
79481;BME280;68944;48.262;14.208;2023-11-21T03:26:29;97851.59;;;3.63;100.00
79481;BME280;68944;48.262;14.208;2023-11-21T03:28:55;97850.34;;;3.59;100.00
79481;BME280;68944;48.262;14.208;2023-11-21T03:31:22;97858.38;;;3.58;100.00
79481;BME280;68944;48.262;14.208;2023-11-21T03:33:49;97854.00;;;3.65;100.00
79481;BME280;68944;48.262;14.208;2023-11-21T03:36:14;97847.88;;;3.58;100.00
79481;BME280;68944;48.262;14.208;2023-11-21T03:38:40;97857.38;;;3.59;100.00
79481;BME280;68944;48.262;14.208;2023-11-21T03:41:07;97855.47;;;3.52;100.00
79481;BME280;68944;48.262;14.208;2023-11-21T03:43:32;97855.13;;;3.56;100.00
79481;BME280;68944;48.262;14.208;2023-11-21T03:45:57;97859.59;;;3.77;100.00
79481;BME280;68944;48.262;14.208;2023-11-21T03:48:23;97863.94;;;3.70;100.00
79481;BME280;68944;48.262;14.208;2023-11-21T03:50:48;97860.69;;;3.30;100.00
79481;BME280;68944;48.262;14.208;2023-11-21T03:53:14;97854.91;;;3.35;100.00
79481;BME280;68944;48.262;14.208;2023-11-21T03:55:39;97857.88;;;3.47;100.00
79481;BME280;68944;48.262;14.208;2023-11-21T03:58:05;97856.56;;;3.58;100.00
79481;BME280;68944;48.262;14.208;2023-11-21T04:00:31;97868.63;;;3.74;100.00
79481;BME280;68944;48.262;14.208;2023-11-21T04:02:56;97861.38;;;3.77;100.00
79481;BME280;68944;48.262;14.208;2023-11-21T04:05:22;97861.50;;;3.68;100.00
79481;BME280;68944;48.262;14.208;2023-11-21T04:07:51;97859.50;;;3.70;100.00
79481;BME280;68944;48.262;14.208;2023-11-21T04:10:17;97860.25;;;3.64;100.00
79481;BME280;68944;48.262;14.208;2023-11-21T04:12:43;97852.16;;;3.59;100.00
79481;BME280;68944;48.262;14.208;2023-11-21T04:15:09;97853.63;;;3.46;100.00
79481;BME280;68944;48.262;14.208;2023-11-21T04:17:35;97853.34;;;3.41;100.00
79481;BME280;68944;48.262;14.208;2023-11-21T04:20:04;97860.81;;;3.59;100.00
79481;BME280;68944;48.262;14.208;2023-11-21T04:22:39;97854.38;;;3.62;100.00
79481;BME280;68944;48.262;14.208;2023-11-21T04:25:14;97847.28;;;3.78;100.00
79481;BME280;68944;48.262;14.208;2023-11-21T04:27:41;97845.78;;;3.68;100.00
79481;BME280;68944;48.262;14.208;2023-11-21T04:30:09;97836.22;;;3.60;100.00
79481;BME280;68944;48.262;14.208;2023-11-21T04:32:35;97839.03;;;3.59;100.00
79481;BME280;68944;48.262;14.208;2023-11-21T04:35:01;97838.78;;;3.53;100.00
79481;BME280;68944;48.262;14.208;2023-11-21T04:37:26;97846.22;;;3.50;100.00
79481;BME280;68944;48.262;14.208;2023-11-21T04:39:52;97832.84;;;3.45;100.00
79481;BME280;68944;48.262;14.208;2023-11-21T04:42:17;97833.84;;;3.44;100.00
79481;BME280;68944;48.262;14.208;2023-11-21T04:44:43;97836.84;;;3.40;100.00
79481;BME280;68944;48.262;14.208;2023-11-21T04:47:09;97838.28;;;3.43;100.00
79481;BME280;68944;48.262;14.208;2023-11-21T04:49:35;97844.50;;;3.42;100.00
79481;BME280;68944;48.262;14.208;2023-11-21T04:52:02;97853.00;;;3.44;100.00
79481;BME280;68944;48.262;14.208;2023-11-21T04:54:30;97857.13;;;3.53;100.00
79481;BME280;68944;48.262;14.208;2023-11-21T04:56:56;97858.28;;;3.66;100.00
79481;BME280;68944;48.262;14.208;2023-11-21T04:59:21;97852.03;;;3.67;100.00
79481;BME280;68944;48.262;14.208;2023-11-21T05:01:50;97859.38;;;3.79;100.00
79481;BME280;68944;48.262;14.208;2023-11-21T05:04:15;97856.50;;;3.73;100.00
79481;BME280;68944;48.262;14.208;2023-11-21T05:06:41;97868.50;;;3.83;100.00
79481;BME280;68944;48.262;14.208;2023-11-21T05:09:06;97855.47;;;3.68;100.00
79481;BME280;68944;48.262;14.208;2023-11-21T05:11:37;97859.28;;;3.87;100.00
79481;BME280;68944;48.262;14.208;2023-11-21T05:14:03;97863.03;;;3.78;100.00
79481;BME280;68944;48.262;14.208;2023-11-21T05:16:30;97857.84;;;3.84;100.00
79481;BME280;68944;48.262;14.208;2023-11-21T05:18:56;97851.66;;;3.70;100.00
79481;BME280;68944;48.262;14.208;2023-11-21T05:21:26;97862.69;;;3.66;100.00
79481;BME280;68944;48.262;14.208;2023-11-21T05:23:52;97861.59;;;3.75;100.00
79481;BME280;68944;48.262;14.208;2023-11-21T05:26:17;97852.34;;;3.79;100.00
79481;BME280;68944;48.262;14.208;2023-11-21T05:28:43;97856.19;;;3.83;100.00
79481;BME280;68944;48.262;14.208;2023-11-21T05:31:08;97850.16;;;3.83;100.00
79481;BME280;68944;48.262;14.208;2023-11-21T05:33:34;97853.47;;;3.70;100.00
79481;BME280;68944;48.262;14.208;2023-11-21T05:35:59;97857.16;;;3.75;100.00
79481;BME280;68944;48.262;14.208;2023-11-21T05:38:25;97859.88;;;3.67;100.00
79481;BME280;68944;48.262;14.208;2023-11-21T05:40:51;97858.34;;;3.73;100.00
79481;BME280;68944;48.262;14.208;2023-11-21T05:43:16;97867.00;;;3.73;100.00
79481;BME280;68944;48.262;14.208;2023-11-21T05:45:42;97868.56;;;3.68;100.00
79481;BME280;68944;48.262;14.208;2023-11-21T05:48:07;97867.59;;;3.53;100.00
79481;BME280;68944;48.262;14.208;2023-11-21T05:50:33;97882.28;;;3.70;100.00
79481;BME280;68944;48.262;14.208;2023-11-21T05:52:58;97882.16;;;3.78;100.00
79481;BME280;68944;48.262;14.208;2023-11-21T05:55:26;97880.28;;;3.72;100.00
79481;BME280;68944;48.262;14.208;2023-11-21T05:57:52;97872.28;;;3.80;100.00
79481;BME280;68944;48.262;14.208;2023-11-21T06:00:17;97876.75;;;3.80;100.00
79481;BME280;68944;48.262;14.208;2023-11-21T06:02:47;97882.72;;;3.95;100.00
79481;BME280;68944;48.262;14.208;2023-11-21T06:05:15;97882.47;;;3.90;100.00
79481;BME280;68944;48.262;14.208;2023-11-21T06:07:42;97885.34;;;3.95;100.00
79481;BME280;68944;48.262;14.208;2023-11-21T06:10:08;97887.00;;;3.96;100.00
79481;BME280;68944;48.262;14.208;2023-11-21T06:12:35;97886.59;;;3.78;100.00
79481;BME280;68944;48.262;14.208;2023-11-21T06:15:04;97888.69;;;3.67;100.00
79481;BME280;68944;48.262;14.208;2023-11-21T06:17:36;97899.94;;;3.83;100.00
79481;BME280;68944;48.262;14.208;2023-11-21T06:20:03;97894.19;;;3.94;100.00
79481;BME280;68944;48.262;14.208;2023-11-21T06:22:38;97903.06;;;3.93;100.00
79481;BME280;68944;48.262;14.208;2023-11-21T06:25:05;97900.19;;;3.88;100.00
79481;BME280;68944;48.262;14.208;2023-11-21T06:27:37;97897.03;;;3.93;100.00
79481;BME280;68944;48.262;14.208;2023-11-21T06:30:03;97909.31;;;3.92;100.00
79481;BME280;68944;48.262;14.208;2023-11-21T06:32:29;97909.69;;;3.89;100.00
79481;BME280;68944;48.262;14.208;2023-11-21T06:34:55;97915.31;;;4.08;100.00
79481;BME280;68944;48.262;14.208;2023-11-21T06:37:21;97910.31;;;4.13;100.00
79481;BME280;68944;48.262;14.208;2023-11-21T06:39:51;97907.69;;;4.13;100.00
79481;BME280;68944;48.262;14.208;2023-11-21T06:42:19;97914.06;;;4.04;100.00
79481;BME280;68944;48.262;14.208;2023-11-21T06:44:46;97910.94;;;4.15;100.00
79481;BME280;68944;48.262;14.208;2023-11-21T06:47:12;97920.28;;;4.25;100.00
79481;BME280;68944;48.262;14.208;2023-11-21T06:49:37;97906.69;;;4.14;100.00
79481;BME280;68944;48.262;14.208;2023-11-21T06:52:04;97915.44;;;4.21;100.00
79481;BME280;68944;48.262;14.208;2023-11-21T06:54:31;97919.41;;;4.17;100.00
79481;BME280;68944;48.262;14.208;2023-11-21T06:56:57;97922.28;;;4.23;100.00
79481;BME280;68944;48.262;14.208;2023-11-21T06:59:23;97924.66;;;4.17;100.00
79481;BME280;68944;48.262;14.208;2023-11-21T07:01:49;97918.19;;;4.35;100.00
79481;BME280;68944;48.262;14.208;2023-11-21T07:04:14;97921.78;;;4.34;100.00
79481;BME280;68944;48.262;14.208;2023-11-21T07:06:40;97934.16;;;4.18;100.00
79481;BME280;68944;48.262;14.208;2023-11-21T07:09:06;97927.44;;;4.31;100.00
79481;BME280;68944;48.262;14.208;2023-11-21T07:11:34;97927.03;;;4.34;100.00
79481;BME280;68944;48.262;14.208;2023-11-21T07:14:00;97931.59;;;4.25;100.00
79481;BME280;68944;48.262;14.208;2023-11-21T07:16:30;97931.19;;;4.21;100.00
79481;BME280;68944;48.262;14.208;2023-11-21T07:18:56;97928.34;;;4.23;100.00
79481;BME280;68944;48.262;14.208;2023-11-21T07:21:21;97938.72;;;4.31;100.00
79481;BME280;68944;48.262;14.208;2023-11-21T07:23:47;97932.69;;;4.31;100.00
79481;BME280;68944;48.262;14.208;2023-11-21T07:26:12;97935.97;;;4.40;100.00
79481;BME280;68944;48.262;14.208;2023-11-21T07:28:38;97946.22;;;4.57;100.00
79481;BME280;68944;48.262;14.208;2023-11-21T07:31:04;97948.31;;;4.68;100.00
79481;BME280;68944;48.262;14.208;2023-11-21T07:33:29;97942.44;;;4.66;100.00
79481;BME280;68944;48.262;14.208;2023-11-21T07:35:55;97945.69;;;4.68;100.00
79481;BME280;68944;48.262;14.208;2023-11-21T07:38:21;97942.50;;;4.51;100.00
79481;BME280;68944;48.262;14.208;2023-11-21T07:40:46;97954.88;;;4.57;100.00
79481;BME280;68944;48.262;14.208;2023-11-21T07:43:12;97951.09;;;4.66;100.00
79481;BME280;68944;48.262;14.208;2023-11-21T07:45:37;97946.59;;;4.82;100.00
79481;BME280;68944;48.262;14.208;2023-11-21T07:48:03;97954.69;;;4.87;100.00
79481;BME280;68944;48.262;14.208;2023-11-21T07:50:30;97943.69;;;5.06;100.00
79481;BME280;68944;48.262;14.208;2023-11-21T07:52:57;97956.06;;;5.12;100.00
79481;BME280;68944;48.262;14.208;2023-11-21T07:55:23;97949.84;;;5.20;100.00
79481;BME280;68944;48.262;14.208;2023-11-21T07:57:50;97958.50;;;5.14;100.00
79481;BME280;68944;48.262;14.208;2023-11-21T08:00:16;97961.78;;;5.22;100.00
79481;BME280;68944;48.262;14.208;2023-11-21T08:02:41;97955.56;;;5.30;100.00
79481;BME280;68944;48.262;14.208;2023-11-21T08:05:12;97952.13;;;5.30;100.00
79481;BME280;68944;48.262;14.208;2023-11-21T08:07:38;97956.41;;;5.38;100.00
79481;BME280;68944;48.262;14.208;2023-11-21T08:10:05;97958.31;;;5.57;100.00
79481;BME280;68944;48.262;14.208;2023-11-21T08:12:30;97956.88;;;5.55;100.00
79481;BME280;68944;48.262;14.208;2023-11-21T08:14:56;97959.31;;;5.56;100.00
79481;BME280;68944;48.262;14.208;2023-11-21T08:17:21;97953.03;;;5.51;100.00
79481;BME280;68944;48.262;14.208;2023-11-21T08:19:47;97951.84;;;5.53;100.00
79481;BME280;68944;48.262;14.208;2023-11-21T08:22:17;97954.91;;;5.64;100.00
79481;BME280;68944;48.262;14.208;2023-11-21T08:24:44;97954.75;;;5.72;100.00
79481;BME280;68944;48.262;14.208;2023-11-21T08:27:09;97953.16;;;5.85;100.00
79481;BME280;68944;48.262;14.208;2023-11-21T08:29:35;97956.41;;;5.94;100.00
79481;BME280;68944;48.262;14.208;2023-11-21T08:32:02;97957.44;;;5.99;100.00
79481;BME280;68944;48.262;14.208;2023-11-21T08:34:28;97957.66;;;5.98;100.00
79481;BME280;68944;48.262;14.208;2023-11-21T08:36:54;97954.59;;;5.94;100.00
79481;BME280;68944;48.262;14.208;2023-11-21T08:39:21;97956.44;;;6.00;100.00
79481;BME280;68944;48.262;14.208;2023-11-21T08:41:50;97951.38;;;5.99;100.00
79481;BME280;68944;48.262;14.208;2023-11-21T08:44:16;97954.44;;;6.02;100.00
79481;BME280;68944;48.262;14.208;2023-11-21T08:46:46;97952.41;;;6.05;100.00
79481;BME280;68944;48.262;14.208;2023-11-21T08:49:12;97956.03;;;6.03;100.00
79481;BME280;68944;48.262;14.208;2023-11-21T08:51:38;97953.59;;;5.95;100.00
79481;BME280;68944;48.262;14.208;2023-11-21T08:54:04;97956.41;;;5.94;100.00
79481;BME280;68944;48.262;14.208;2023-11-21T08:56:33;97962.06;;;5.90;100.00
79481;BME280;68944;48.262;14.208;2023-11-21T08:58:59;97962.94;;;6.05;100.00
79481;BME280;68944;48.262;14.208;2023-11-21T09:01:28;97958.88;;;6.02;100.00
79481;BME280;68944;48.262;14.208;2023-11-21T09:03:53;97952.38;;;5.91;100.00
79481;BME280;68944;48.262;14.208;2023-11-21T09:06:18;97957.22;;;5.94;100.00
79481;BME280;68944;48.262;14.208;2023-11-21T09:08:44;97962.53;;;6.08;100.00
79481;BME280;68944;48.262;14.208;2023-11-21T09:11:10;97954.81;;;6.06;100.00
79481;BME280;68944;48.262;14.208;2023-11-21T09:13:35;97955.69;;;6.13;100.00
79481;BME280;68944;48.262;14.208;2023-11-21T09:16:02;97954.09;;;6.40;100.00
79481;BME280;68944;48.262;14.208;2023-11-21T09:18:27;97952.47;;;6.59;100.00
79481;BME280;68944;48.262;14.208;2023-11-21T09:20:53;97953.50;;;6.44;100.00
79481;BME280;68944;48.262;14.208;2023-11-21T09:23:18;97956.53;;;6.41;100.00
79481;BME280;68944;48.262;14.208;2023-11-21T09:25:44;97959.38;;;6.40;100.00
79481;BME280;68944;48.262;14.208;2023-11-21T09:28:12;97963.41;;;6.42;100.00
79481;BME280;68944;48.262;14.208;2023-11-21T09:30:38;97964.03;;;6.44;100.00
79481;BME280;68944;48.262;14.208;2023-11-21T09:33:03;97972.28;;;6.14;100.00
79481;BME280;68944;48.262;14.208;2023-11-21T09:35:33;97978.16;;;6.16;100.00
79481;BME280;68944;48.262;14.208;2023-11-21T09:37:59;97985.63;;;6.12;100.00
79481;BME280;68944;48.262;14.208;2023-11-21T09:40:27;97985.44;;;6.14;100.00
79481;BME280;68944;48.262;14.208;2023-11-21T09:42:56;97975.84;;;5.99;100.00
79481;BME280;68944;48.262;14.208;2023-11-21T09:45:26;97979.94;;;6.09;100.00
79481;BME280;68944;48.262;14.208;2023-11-21T09:47:57;97972.41;;;6.06;100.00
79481;BME280;68944;48.262;14.208;2023-11-21T09:50:23;97975.09;;;6.12;100.00
79481;BME280;68944;48.262;14.208;2023-11-21T09:52:55;97975.50;;;6.09;100.00
79481;BME280;68944;48.262;14.208;2023-11-21T09:55:25;97969.75;;;5.92;100.00
79481;BME280;68944;48.262;14.208;2023-11-21T09:57:53;97956.38;;;5.87;100.00
79481;BME280;68944;48.262;14.208;2023-11-21T10:00:23;97963.47;;;5.86;100.00
79481;BME280;68944;48.262;14.208;2023-11-21T10:02:49;97964.06;;;5.82;100.00
79481;BME280;68944;48.262;14.208;2023-11-21T10:05:16;97966.97;;;6.00;100.00
79481;BME280;68944;48.262;14.208;2023-11-21T10:07:44;97967.94;;;5.92;100.00
79481;BME280;68944;48.262;14.208;2023-11-21T10:10:15;97961.72;;;6.00;100.00
79481;BME280;68944;48.262;14.208;2023-11-21T10:12:43;97971.41;;;6.00;100.00
79481;BME280;68944;48.262;14.208;2023-11-21T10:15:14;97974.69;;;6.09;100.00
79481;BME280;68944;48.262;14.208;2023-11-21T10:17:44;97970.84;;;6.11;100.00
79481;BME280;68944;48.262;14.208;2023-11-21T10:20:10;97968.63;;;6.08;100.00
79481;BME280;68944;48.262;14.208;2023-11-21T10:22:39;97973.88;;;6.15;100.00
79481;BME280;68944;48.262;14.208;2023-11-21T10:25:11;97974.69;;;6.09;100.00
79481;BME280;68944;48.262;14.208;2023-11-21T10:27:46;97968.41;;;6.10;100.00
79481;BME280;68944;48.262;14.208;2023-11-21T10:30:12;97961.75;;;6.07;100.00
79481;BME280;68944;48.262;14.208;2023-11-21T10:32:41;97968.63;;;6.15;100.00
79481;BME280;68944;48.262;14.208;2023-11-21T10:35:08;97960.56;;;6.17;100.00
79481;BME280;68944;48.262;14.208;2023-11-21T10:37:42;97960.75;;;6.29;100.00
79481;BME280;68944;48.262;14.208;2023-11-21T10:40:09;97960.16;;;6.26;100.00
79481;BME280;68944;48.262;14.208;2023-11-21T10:42:39;97964.22;;;6.36;100.00
79481;BME280;68944;48.262;14.208;2023-11-21T10:45:06;97963.59;;;6.34;100.00
79481;BME280;68944;48.262;14.208;2023-11-21T10:47:44;97958.13;;;6.35;100.00
79481;BME280;68944;48.262;14.208;2023-11-21T10:50:10;97967.03;;;6.34;100.00
79481;BME280;68944;48.262;14.208;2023-11-21T10:52:37;97968.66;;;6.29;100.00
79481;BME280;68944;48.262;14.208;2023-11-21T10:55:24;97965.63;;;6.39;100.00
79481;BME280;68944;48.262;14.208;2023-11-21T10:57:53;97965.03;;;6.36;100.00
79481;BME280;68944;48.262;14.208;2023-11-21T11:00:20;97969.09;;;6.39;100.00
79481;BME280;68944;48.262;14.208;2023-11-21T11:02:52;97966.63;;;6.31;100.00
79481;BME280;68944;48.262;14.208;2023-11-21T11:05:23;97963.38;;;6.35;100.00
79481;BME280;68944;48.262;14.208;2023-11-21T11:08:12;97966.66;;;6.44;100.00
79481;BME280;68944;48.262;14.208;2023-11-21T11:10:39;97961.41;;;6.58;100.00
79481;BME280;68944;48.262;14.208;2023-11-21T11:13:07;97965.47;;;6.67;100.00
79481;BME280;68944;48.262;14.208;2023-11-21T11:15:32;97957.56;;;6.54;100.00
79481;BME280;68944;48.262;14.208;2023-11-21T11:17:59;97955.72;;;6.61;100.00
79481;BME280;68944;48.262;14.208;2023-11-21T11:20:31;97955.31;;;6.78;100.00
79481;BME280;68944;48.262;14.208;2023-11-21T11:28:08;97967.47;;;6.65;100.00
79481;BME280;68944;48.262;14.208;2023-11-21T11:33:15;97964.25;;;6.77;100.00
79481;BME280;68944;48.262;14.208;2023-11-21T11:35:53;97955.91;;;6.80;100.00
79481;BME280;68944;48.262;14.208;2023-11-21T11:38:22;97950.63;;;6.87;100.00
79481;BME280;68944;48.262;14.208;2023-11-21T11:40:53;97953.47;;;6.99;100.00
79481;BME280;68944;48.262;14.208;2023-11-21T11:43:26;97958.53;;;6.93;100.00
79481;BME280;68944;48.262;14.208;2023-11-21T11:45:55;97959.13;;;7.09;100.00
79481;BME280;68944;48.262;14.208;2023-11-21T11:48:21;97959.53;;;7.06;100.00
79481;BME280;68944;48.262;14.208;2023-11-21T11:51:09;97954.88;;;7.01;100.00
79481;BME280;68944;48.262;14.208;2023-11-21T11:53:43;97948.78;;;7.14;100.00
79481;BME280;68944;48.262;14.208;2023-11-21T11:56:30;97944.72;;;7.12;100.00
79481;BME280;68944;48.262;14.208;2023-11-21T11:58:58;97948.75;;;7.21;100.00
79481;BME280;68944;48.262;14.208;2023-11-21T12:01:26;97944.53;;;7.07;100.00
79481;BME280;68944;48.262;14.208;2023-11-21T12:06:46;97950.00;;;6.98;100.00
79481;BME280;68944;48.262;14.208;2023-11-21T12:09:22;97956.50;;;7.09;100.00
79481;BME280;68944;48.262;14.208;2023-11-21T12:11:49;97952.84;;;7.10;100.00
79481;BME280;68944;48.262;14.208;2023-11-21T12:14:15;97955.06;;;7.13;100.00
79481;BME280;68944;48.262;14.208;2023-11-21T12:16:42;97948.75;;;7.21;100.00
79481;BME280;68944;48.262;14.208;2023-11-21T12:19:13;97955.03;;;7.27;100.00
79481;BME280;68944;48.262;14.208;2023-11-21T12:21:40;97944.09;;;7.30;100.00
79481;BME280;68944;48.262;14.208;2023-11-21T12:24:09;97948.56;;;7.23;100.00
79481;BME280;68944;48.262;14.208;2023-11-21T12:26:35;97947.97;;;7.21;100.00
79481;BME280;68944;48.262;14.208;2023-11-21T12:29:04;97935.38;;;7.23;100.00
79481;BME280;68944;48.262;14.208;2023-11-21T12:31:30;97936.59;;;7.20;100.00
79481;BME280;68944;48.262;14.208;2023-11-21T12:33:56;97937.59;;;7.26;100.00
79481;BME280;68944;48.262;14.208;2023-11-21T12:36:22;97939.00;;;7.28;100.00
79481;BME280;68944;48.262;14.208;2023-11-21T12:38:48;97928.88;;;7.32;100.00
79481;BME280;68944;48.262;14.208;2023-11-21T12:41:15;97934.31;;;7.37;100.00
79481;BME280;68944;48.262;14.208;2023-11-21T12:43:42;97921.59;;;7.27;100.00
79481;BME280;68944;48.262;14.208;2023-11-21T12:46:10;97926.25;;;7.32;100.00
79481;BME280;68944;48.262;14.208;2023-11-21T12:48:42;97930.47;;;7.33;100.00
79481;BME280;68944;48.262;14.208;2023-11-21T12:51:09;97933.72;;;7.35;100.00
79481;BME280;68944;48.262;14.208;2023-11-21T12:53:37;97927.44;;;7.36;100.00
79481;BME280;68944;48.262;14.208;2023-11-21T12:56:11;97928.63;;;7.40;100.00
79481;BME280;68944;48.262;14.208;2023-11-21T12:58:38;97930.28;;;7.42;100.00
79481;BME280;68944;48.262;14.208;2023-11-21T13:01:07;97926.81;;;7.41;100.00